Flight Track Log - Related Links

Times and Time Zones

All times are in EDT time to prevent confusion due to time zone crossing. See the N342QS flight status page for this flight to view local times or setup timezone preferences in your user account.

Time Position Orientation Groundspeed Altitude Reporting Facility
EDT Latitude Longitude Course Direction KTS MPH feet Rate Location/Type
Sun 07:17:31 PM 40.7167 -74.1500 251° West 219 252 1,700  Level New York TRACON
Sun 07:22:41 PM 40.6094 -74.5544 238° Southwest 322 371 21,800 3,655 Climbing New York Center
Sun 07:23:42 PM 40.5556 -74.6661 233° Southwest 344 396 24,300 2,441 Climbing New York Center
Sun 07:24:39 PM 40.4958 -74.7719 231° Southwest 380 437 26,600 2,308 Climbing New York Center
Sun 07:25:39 PM 40.4253 -74.8850 232° Southwest 402 463 28,800 1,686 Climbing New York Center
Sun 07:26:40 PM 40.3478 -75.0167 232° Southwest 418 481 30,000 590 Climbing New York Center
Sun 07:27:41 PM 40.2811 -75.1294 233° Southwest 437 503 30,000  Level New York Center
Sun 07:28:41 PM 40.2097 -75.2528 231° Southwest 442 509 30,000  Level New York Center
Sun 07:29:42 PM 40.1342 -75.3728 228° Southwest 437 503 30,000  Level New York Center
Sun 07:30:39 PM 40.0481 -75.4972 227° Southwest 448 516 30,000  Level New York Center
Sun 07:31:40 PM 39.9619 -75.6161 229° Southwest 454 522 30,000 -496 Level New York Center
Sun 07:32:40 PM 39.8819 -75.7350 229° Southwest 454 522 29,000 -1,488 Descending New York Center
Sun 07:33:41 PM 39.7950 -75.8667 231° Southwest 442 509 27,000 -1,822 Descending New York Center
Sun 07:35:51 PM 39.6458 -76.1061 231° Southwest 413 475 23,200 -1,571 Descending Washington Center
Sun 07:36:52 PM 39.5744 -76.2189 231° Southwest 413 475 22,000 -595 Descending Washington Center
Sun 07:37:52 PM 39.5031 -76.3311 229° Southwest 413 475 22,000  Level Washington Center
Sun 07:38:50 PM 39.4294 -76.4406 232° Southwest 407 468 22,000  Level Washington Center
Sun 07:39:50 PM 39.3514 -76.5686 228° Southwest 407 468 22,000  Level Washington Center
Sun 07:40:45 PM 39.2833 -76.6667 229° Southwest 392 451 22,000  Level Potomac TRACON
Sun 07:41:39 PM 39.2167 -76.7667 234° Southwest 392 451 22,000  Level Potomac TRACON
Sun 07:42:40 PM 39.1500 -76.8833 232° Southwest 385 443 22,000  Level Potomac TRACON
Sun 07:43:50 PM 39.0781 -77.0033 231° Southwest 392 451 22,000 -550 Level Washington Center
Sun 07:44:51 PM 39.0122 -77.1089 232° Southwest 392 451 20,800 -1,486 Descending Washington Center
Sun 07:45:35 PM 38.9667 -77.1833 229° Southwest 388 447 19,400 -1,600 Descending Potomac TRACON
Sun 07:46:36 PM 38.9000 -77.2833 234° Southwest 361 415 18,000 -992 Descending Potomac TRACON
Sun 07:47:36 PM 38.8333 -77.4000 229° Southwest 361 415 17,400 -1,276 Descending Potomac TRACON
Sun 07:48:43 PM 38.7667 -77.5000 224° Southwest 349 402 15,300 -1,190 Descending Potomac TRACON
Sun 07:49:37 PM 38.7000 -77.5833 230° Southwest 363 418 15,000 -842 Descending Potomac TRACON
Sun 07:50:37 PM 38.6333 -77.6833 237° Southwest 343 395 13,700 -1,537 Descending Potomac TRACON
Sun 07:51:38 PM 38.5833 -77.7833 224° Southwest 342 394 11,900 -1,785 Descending Potomac TRACON
Sun 07:52:38 PM 38.5167 -77.8667 233° Southwest 337 388 10,100 -1,450 Descending Potomac TRACON
Sun 07:53:38 PM 38.4667 -77.9500 233° Southwest 274 315 9,000 -550 Descending Potomac TRACON
Sun 07:54:38 PM 38.4167 -78.0333 226° Southwest 278 320 9,000 -500 Level Potomac TRACON
Sun 07:55:38 PM 38.3667 -78.1000 243° Southwest 266 306 8,000 -1,488 Descending Potomac TRACON
Sun 07:56:39 PM 38.3333 -78.1833 226° Southwest 303 349 6,000 -2,380 Descending Potomac TRACON
Sun 07:57:39 PM 38.2833 -78.2500 226° Southwest 261 300 3,200 -1,619 Descending Potomac TRACON
Sun 07:58:45 PM 38.2333 -78.3167 252° West 217 250 2,600 -520 Descending Potomac TRACON
Sun 07:59:46 PM 38.2167 -78.3833 238° Southwest 176 203 2,100 -365 Descending Potomac TRACON
Sun 08:00:40 PM 38.2000 -78.4167 201° Southwest 130 150 1,900 -421 Descending Potomac TRACON
Sun 08:01:40 PM 38.1667 -78.4333 149° Southeast 119 137 1,300 -600 Descending Potomac TRACON
Sun 08:09:15 PM 37.5495 -77.9745 330° Northwest  Level FlightAware Approximate
Sun 08:10:15 PM 37.6310 -78.0346 330° Northwest  Level FlightAware Approximate
Sun 08:11:15 PM 37.7124 -78.0948 330° Northwest  Level FlightAware Approximate
Sun 08:12:15 PM 37.7939 -78.1551 330° Northwest  Level FlightAware Approximate
Sun 08:13:15 PM 37.8753 -78.2156 330° Northwest  Level FlightAware Approximate
Sun 08:14:15 PM 37.9566 -78.2762 330° Northwest  Level FlightAware Approximate
Sun 08:15:15 PM 38.0379 -78.3369 330° Northwest  Level FlightAware Approximate

Login

Don't have an account? Register now (free) for customized features, flight alerts, and more!